sensor_id;sensor_type;location;lat;lon;timestamp;temperature;humidity
1602;DHT22;794;48.592;9.634;2022-10-26T00:00:44;11.80;1.00
1602;DHT22;794;48.592;9.634;2022-10-26T00:03:11;11.70;1.00
1602;DHT22;794;48.592;9.634;2022-10-26T00:05:38;11.70;1.00
1602;DHT22;794;48.592;9.634;2022-10-26T00:08:07;11.70;1.00
1602;DHT22;794;48.592;9.634;2022-10-26T00:10:35;11.80;1.00
1602;DHT22;794;48.592;9.634;2022-10-26T00:13:03;12.30;1.00
1602;DHT22;794;48.592;9.634;2022-10-26T00:17:58;11.50;1.00
1602;DHT22;794;48.592;9.634;2022-10-26T00:20:25;11.60;1.00
1602;DHT22;794;48.592;9.634;2022-10-26T00:22:52;11.90;1.00
1602;DHT22;794;48.592;9.634;2022-10-26T00:25:20;12.00;1.00
1602;DHT22;794;48.592;9.634;2022-10-26T00:27:47;11.70;1.00
1602;DHT22;794;48.592;9.634;2022-10-26T00:30:16;11.90;1.00
1602;DHT22;794;48.592;9.634;2022-10-26T00:32:43;11.80;1.00
1602;DHT22;794;48.592;9.634;2022-10-26T00:37:38;11.90;1.00
1602;DHT22;794;48.592;9.634;2022-10-26T00:40:06;12.10;1.00
1602;DHT22;794;48.592;9.634;2022-10-26T00:42:34;11.60;1.00
1602;DHT22;794;48.592;9.634;2022-10-26T00:45:05;11.80;1.00
1602;DHT22;794;48.592;9.634;2022-10-26T00:47:37;12.00;1.00
1602;DHT22;794;48.592;9.634;2022-10-26T00:50:08;11.80;1.00
1602;DHT22;794;48.592;9.634;2022-10-26T00:52:36;11.80;1.00
1602;DHT22;794;48.592;9.634;2022-10-26T00:55:04;11.80;1.00
1602;DHT22;794;48.592;9.634;2022-10-26T00:57:33;11.80;1.00
1602;DHT22;794;48.592;9.634;2022-10-26T01:04:56;12.00;1.00
1602;DHT22;794;48.592;9.634;2022-10-26T01:07:24;12.10;1.00
1602;DHT22;794;48.592;9.634;2022-10-26T01:09:52;11.80;1.00
1602;DHT22;794;48.592;9.634;2022-10-26T01:12:19;12.20;1.00
1602;DHT22;794;48.592;9.634;2022-10-26T01:14:47;12.00;1.00
1602;DHT22;794;48.592;9.634;2022-10-26T01:17:26;12.20;1.00
1602;DHT22;794;48.592;9.634;2022-10-26T01:20:20;12.00;1.00
1602;DHT22;794;48.592;9.634;2022-10-26T01:22:58;11.90;1.00
1602;DHT22;794;48.592;9.634;2022-10-26T01:25:46;12.10;1.00
1602;DHT22;794;48.592;9.634;2022-10-26T01:28:28;12.10;1.00
1602;DHT22;794;48.592;9.634;2022-10-26T01:31:02;12.30;1.00
1602;DHT22;794;48.592;9.634;2022-10-26T01:33:34;11.70;1.00
1602;DHT22;794;48.592;9.634;2022-10-26T01:36:10;12.10;1.00
1602;DHT22;794;48.592;9.634;2022-10-26T01:38:43;12.50;1.00
1602;DHT22;794;48.592;9.634;2022-10-26T01:41:20;12.20;1.00
1602;DHT22;794;48.592;9.634;2022-10-26T01:43:52;12.10;1.00
1602;DHT22;794;48.592;9.634;2022-10-26T01:46:23;12.30;1.00
1602;DHT22;794;48.592;9.634;2022-10-26T01:48:54;12.10;1.00
1602;DHT22;794;48.592;9.634;2022-10-26T01:51:24;12.20;1.00
1602;DHT22;794;48.592;9.634;2022-10-26T01:53:52;12.20;1.00
1602;DHT22;794;48.592;9.634;2022-10-26T01:56:22;12.10;1.00
1602;DHT22;794;48.592;9.634;2022-10-26T01:59:12;12.00;1.00
1602;DHT22;794;48.592;9.634;2022-10-26T02:05:15;12.20;1.00
1602;DHT22;794;48.592;9.634;2022-10-26T02:07:54;12.10;1.00
1602;DHT22;794;48.592;9.634;2022-10-26T02:10:29;12.30;1.00
1602;DHT22;794;48.592;9.634;2022-10-26T02:13:03;12.20;1.00
1602;DHT22;794;48.592;9.634;2022-10-26T02:15:40;12.30;1.00
1602;DHT22;794;48.592;9.634;2022-10-26T02:18:19;12.30;1.00
1602;DHT22;794;48.592;9.634;2022-10-26T02:20:52;12.10;1.00
1602;DHT22;794;48.592;9.634;2022-10-26T02:23:22;12.00;1.00
1602;DHT22;794;48.592;9.634;2022-10-26T02:25:54;12.10;1.00
1602;DHT22;794;48.592;9.634;2022-10-26T02:28:24;12.80;1.00
1602;DHT22;794;48.592;9.634;2022-10-26T02:30:54;12.10;1.00
1602;DHT22;794;48.592;9.634;2022-10-26T02:33:25;12.10;1.00
1602;DHT22;794;48.592;9.634;2022-10-26T02:35:59;12.40;1.00
1602;DHT22;794;48.592;9.634;2022-10-26T02:38:29;12.10;1.00
1602;DHT22;794;48.592;9.634;2022-10-26T02:40:57;12.00;1.00
1602;DHT22;794;48.592;9.634;2022-10-26T02:43:26;12.30;1.00
1602;DHT22;794;48.592;9.634;2022-10-26T02:45:58;12.20;1.00
1602;DHT22;794;48.592;9.634;2022-10-26T02:48:27;11.80;1.00
1602;DHT22;794;48.592;9.634;2022-10-26T02:50:59;12.00;1.00
1602;DHT22;794;48.592;9.634;2022-10-26T02:53:31;11.80;1.00
1602;DHT22;794;48.592;9.634;2022-10-26T02:56:04;11.70;1.00
1602;DHT22;794;48.592;9.634;2022-10-26T02:58:37;12.30;1.00
1602;DHT22;794;48.592;9.634;2022-10-26T03:01:06;12.00;1.00
1602;DHT22;794;48.592;9.634;2022-10-26T03:03:35;12.10;1.00
1602;DHT22;794;48.592;9.634;2022-10-26T03:06:02;12.00;1.00
1602;DHT22;794;48.592;9.634;2022-10-26T03:08:29;11.90;1.00
1602;DHT22;794;48.592;9.634;2022-10-26T03:10:56;12.40;1.00
1602;DHT22;794;48.592;9.634;2022-10-26T03:13:23;11.80;1.00
1602;DHT22;794;48.592;9.634;2022-10-26T03:15:54;12.00;1.00
1602;DHT22;794;48.592;9.634;2022-10-26T03:20:53;11.80;1.00
1602;DHT22;794;48.592;9.634;2022-10-26T03:28:15;11.90;1.00
1602;DHT22;794;48.592;9.634;2022-10-26T03:33:09;11.90;1.00
1602;DHT22;794;48.592;9.634;2022-10-26T03:38:05;12.10;1.00
1602;DHT22;794;48.592;9.634;2022-10-26T03:40:33;12.10;1.00
1602;DHT22;794;48.592;9.634;2022-10-26T03:43:01;12.00;1.00
1602;DHT22;794;48.592;9.634;2022-10-26T03:45:28;12.30;1.00
1602;DHT22;794;48.592;9.634;2022-10-26T03:47:55;12.20;1.00
1602;DHT22;794;48.592;9.634;2022-10-26T03:50:22;12.20;1.00
1602;DHT22;794;48.592;9.634;2022-10-26T03:52:49;12.10;1.00
1602;DHT22;794;48.592;9.634;2022-10-26T03:55:18;12.20;1.00
1602;DHT22;794;48.592;9.634;2022-10-26T03:57:50;12.80;1.00
1602;DHT22;794;48.592;9.634;2022-10-26T04:00:17;12.20;1.00
1602;DHT22;794;48.592;9.634;2022-10-26T04:02:45;12.30;1.00
1602;DHT22;794;48.592;9.634;2022-10-26T04:05:19;12.60;1.00
1602;DHT22;794;48.592;9.634;2022-10-26T04:07:51;12.40;1.00
1602;DHT22;794;48.592;9.634;2022-10-26T04:10:20;12.30;1.00
1602;DHT22;794;48.592;9.634;2022-10-26T04:12:48;12.60;1.00
1602;DHT22;794;48.592;9.634;2022-10-26T04:15:19;12.50;1.00
1602;DHT22;794;48.592;9.634;2022-10-26T04:17:47;14.50;1.00
1602;DHT22;794;48.592;9.634;2022-10-26T04:20:15;12.50;1.00
1602;DHT22;794;48.592;9.634;2022-10-26T04:22:41;12.90;1.00
1602;DHT22;794;48.592;9.634;2022-10-26T04:25:09;11.10;1.00
1602;DHT22;794;48.592;9.634;2022-10-26T04:27:39;13.30;1.00
1602;DHT22;794;48.592;9.634;2022-10-26T04:30:07;12.30;1.00
1602;DHT22;794;48.592;9.634;2022-10-26T04:32:34;12.60;1.00
1602;DHT22;794;48.592;9.634;2022-10-26T04:35:01;12.60;1.00
1602;DHT22;794;48.592;9.634;2022-10-26T04:37:28;12.70;1.00
1602;DHT22;794;48.592;9.634;2022-10-26T04:39:55;12.70;1.00
1602;DHT22;794;48.592;9.634;2022-10-26T04:42:22;13.00;1.00
1602;DHT22;794;48.592;9.634;2022-10-26T04:44:51;12.60;1.00
1602;DHT22;794;48.592;9.634;2022-10-26T04:47:19;12.80;1.00
1602;DHT22;794;48.592;9.634;2022-10-26T04:49:48;12.80;1.00
1602;DHT22;794;48.592;9.634;2022-10-26T04:52:17;12.90;1.00
1602;DHT22;794;48.592;9.634;2022-10-26T04:54:44;12.70;1.00
1602;DHT22;794;48.592;9.634;2022-10-26T04:57:15;12.60;1.00
1602;DHT22;794;48.592;9.634;2022-10-26T04:59:46;12.80;1.00
1602;DHT22;794;48.592;9.634;2022-10-26T05:02:14;13.00;1.00
1602;DHT22;794;48.592;9.634;2022-10-26T05:04:50;12.90;1.00
1602;DHT22;794;48.592;9.634;2022-10-26T05:07:17;13.80;1.00
1602;DHT22;794;48.592;9.634;2022-10-26T05:09:46;12.80;1.00
1602;DHT22;794;48.592;9.634;2022-10-26T05:12:15;12.80;1.00
1602;DHT22;794;48.592;9.634;2022-10-26T05:14:42;12.70;1.00
1602;DHT22;794;48.592;9.634;2022-10-26T05:17:09;12.80;1.00
1602;DHT22;794;48.592;9.634;2022-10-26T05:19:38;12.80;1.00
1602;DHT22;794;48.592;9.634;2022-10-26T05:22:05;12.80;1.00
1602;DHT22;794;48.592;9.634;2022-10-26T05:24:32;12.80;1.00
1602;DHT22;794;48.592;9.634;2022-10-26T05:27:01;12.80;1.00
1602;DHT22;794;48.592;9.634;2022-10-26T05:29:28;12.50;1.00
1602;DHT22;794;48.592;9.634;2022-10-26T05:31:55;12.60;1.00
1602;DHT22;794;48.592;9.634;2022-10-26T05:34:22;12.80;1.00
1602;DHT22;794;48.592;9.634;2022-10-26T05:36:52;13.00;1.00
1602;DHT22;794;48.592;9.634;2022-10-26T05:39:19;13.00;1.00
1602;DHT22;794;48.592;9.634;2022-10-26T05:41:48;12.90;1.00
1602;DHT22;794;48.592;9.634;2022-10-26T05:44:19;13.10;1.00
1602;DHT22;794;48.592;9.634;2022-10-26T05:46:46;13.00;1.00
1602;DHT22;794;48.592;9.634;2022-10-26T05:49:13;12.90;1.00
1602;DHT22;794;48.592;9.634;2022-10-26T05:51:40;12.60;1.00
1602;DHT22;794;48.592;9.634;2022-10-26T05:54:11;12.90;1.00
1602;DHT22;794;48.592;9.634;2022-10-26T05:56:41;11.00;1.00
1602;DHT22;794;48.592;9.634;2022-10-26T05:59:12;13.10;1.00
1602;DHT22;794;48.592;9.634;2022-10-26T06:01:52;13.00;1.00
1602;DHT22;794;48.592;9.634;2022-10-26T06:04:29;12.80;1.00
1602;DHT22;794;48.592;9.634;2022-10-26T06:07:01;13.10;1.00
1602;DHT22;794;48.592;9.634;2022-10-26T06:09:33;12.90;1.00
1602;DHT22;794;48.592;9.634;2022-10-26T06:12:00;12.90;1.00
1602;DHT22;794;48.592;9.634;2022-10-26T06:14:28;12.90;1.00
1602;DHT22;794;48.592;9.634;2022-10-26T06:17:10;12.00;1.00
1602;DHT22;794;48.592;9.634;2022-10-26T06:19:53;13.20;1.00
1602;DHT22;794;48.592;9.634;2022-10-26T06:22:37;12.90;1.00
1602;DHT22;794;48.592;9.634;2022-10-26T06:25:32;14.00;1.00
1602;DHT22;794;48.592;9.634;2022-10-26T06:28:10;12.90;1.00
1602;DHT22;794;48.592;9.634;2022-10-26T06:30:40;13.20;1.00
1602;DHT22;794;48.592;9.634;2022-10-26T06:33:12;13.60;1.00
1602;DHT22;794;48.592;9.634;2022-10-26T06:35:50;13.80;1.00
1602;DHT22;794;48.592;9.634;2022-10-26T06:38:22;13.00;1.00
1602;DHT22;794;48.592;9.634;2022-10-26T06:40:54;14.10;1.00
1602;DHT22;794;48.592;9.634;2022-10-26T06:43:24;13.60;1.00
1602;DHT22;794;48.592;9.634;2022-10-26T06:45:55;13.60;1.00
1602;DHT22;794;48.592;9.634;2022-10-26T06:48:27;13.50;1.00
1602;DHT22;794;48.592;9.634;2022-10-26T06:50:55;13.70;1.00
1602;DHT22;794;48.592;9.634;2022-10-26T06:53:28;13.80;1.00
1602;DHT22;794;48.592;9.634;2022-10-26T06:55:58;14.10;1.00
1602;DHT22;794;48.592;9.634;2022-10-26T06:58:33;14.20;1.00
1602;DHT22;794;48.592;9.634;2022-10-26T07:01:03;14.40;1.00
1602;DHT22;794;48.592;9.634;2022-10-26T07:03:30;14.50;1.00
1602;DHT22;794;48.592;9.634;2022-10-26T07:05:57;14.90;1.00
1602;DHT22;794;48.592;9.634;2022-10-26T07:08:25;14.50;1.00
1602;DHT22;794;48.592;9.634;2022-10-26T07:10:52;14.30;1.00
1602;DHT22;794;48.592;9.634;2022-10-26T07:13:20;14.40;1.00
1602;DHT22;794;48.592;9.634;2022-10-26T07:15:49;14.60;1.00
1602;DHT22;794;48.592;9.634;2022-10-26T07:18:17;15.50;1.00
1602;DHT22;794;48.592;9.634;2022-10-26T07:20:45;14.70;1.00
1602;DHT22;794;48.592;9.634;2022-10-26T07:23:12;14.90;1.00
1602;DHT22;794;48.592;9.634;2022-10-26T07:25:40;15.00;1.00
1602;DHT22;794;48.592;9.634;2022-10-26T07:28:09;15.20;1.00
1602;DHT22;794;48.592;9.634;2022-10-26T07:30:38;15.30;1.00
1602;DHT22;794;48.592;9.634;2022-10-26T07:33:08;15.30;1.00
1602;DHT22;794;48.592;9.634;2022-10-26T07:35:35;15.30;1.00
1602;DHT22;794;48.592;9.634;2022-10-26T07:38:03;15.70;1.00
1602;DHT22;794;48.592;9.634;2022-10-26T07:40:30;15.70;1.00
1602;DHT22;794;48.592;9.634;2022-10-26T07:42:58;15.50;1.00
1602;DHT22;794;48.592;9.634;2022-10-26T07:45:31;15.40;1.00
1602;DHT22;794;48.592;9.634;2022-10-26T07:47:59;15.70;1.00
1602;DHT22;794;48.592;9.634;2022-10-26T07:50:26;15.60;1.00
1602;DHT22;794;48.592;9.634;2022-10-26T07:53:00;15.60;1.00
1602;DHT22;794;48.592;9.634;2022-10-26T07:55:27;15.30;1.00
1602;DHT22;794;48.592;9.634;2022-10-26T07:57:56;15.90;1.00
1602;DHT22;794;48.592;9.634;2022-10-26T08:00:23;15.80;1.00
1602;DHT22;794;48.592;9.634;2022-10-26T08:02:55;16.20;1.00
1602;DHT22;794;48.592;9.634;2022-10-26T08:05:37;16.00;1.00
1602;DHT22;794;48.592;9.634;2022-10-26T08:10:32;16.20;1.00
1602;DHT22;794;48.592;9.634;2022-10-26T08:13:01;16.30;1.00
1602;DHT22;794;48.592;9.634;2022-10-26T08:15:30;16.40;1.00
1602;DHT22;794;48.592;9.634;2022-10-26T08:18:00;16.40;1.00
1602;DHT22;794;48.592;9.634;2022-10-26T08:20:27;16.50;1.00
1602;DHT22;794;48.592;9.634;2022-10-26T08:22:56;16.70;1.00
1602;DHT22;794;48.592;9.634;2022-10-26T08:25:24;16.90;1.00
1602;DHT22;794;48.592;9.634;2022-10-26T08:27:53;17.10;1.00
1602;DHT22;794;48.592;9.634;2022-10-26T08:30:22;17.10;1.00
1602;DHT22;794;48.592;9.634;2022-10-26T08:33:00;17.30;1.00
1602;DHT22;794;48.592;9.634;2022-10-26T08:37:56;17.40;1.00
1602;DHT22;794;48.592;9.634;2022-10-26T08:40:27;17.30;1.00
1602;DHT22;794;48.592;9.634;2022-10-26T08:42:59;17.40;1.00
1602;DHT22;794;48.592;9.634;2022-10-26T08:45:32;17.30;1.00
1602;DHT22;794;48.592;9.634;2022-10-26T08:48:03;17.30;1.00
1602;DHT22;794;48.592;9.634;2022-10-26T08:50:33;17.90;1.00
1602;DHT22;794;48.592;9.634;2022-10-26T08:53:10;16.40;1.00
1602;DHT22;794;48.592;9.634;2022-10-26T08:55:43;17.20;1.00
1602;DHT22;794;48.592;9.634;2022-10-26T08:58:14;17.10;1.00
1602;DHT22;794;48.592;9.634;2022-10-26T09:00:47;17.20;1.00
1602;DHT22;794;48.592;9.634;2022-10-26T09:03:15;17.50;1.00
1602;DHT22;794;48.592;9.634;2022-10-26T09:05:53;17.20;1.00
1602;DHT22;794;48.592;9.634;2022-10-26T09:08:35;17.30;1.00
1602;DHT22;794;48.592;9.634;2022-10-26T09:11:11;14.70;1.00
1602;DHT22;794;48.592;9.634;2022-10-26T09:13:49;17.50;1.00
1602;DHT22;794;48.592;9.634;2022-10-26T09:16:25;17.50;1.00
1602;DHT22;794;48.592;9.634;2022-10-26T09:19:30;17.90;1.00
1602;DHT22;794;48.592;9.634;2022-10-26T09:22:05;17.90;1.00
1602;DHT22;794;48.592;9.634;2022-10-26T09:24:38;17.80;1.00
1602;DHT22;794;48.592;9.634;2022-10-26T09:27:12;19.40;1.00
1602;DHT22;794;48.592;9.634;2022-10-26T09:29:46;18.40;1.00
1602;DHT22;794;48.592;9.634;2022-10-26T09:32:17;18.60;1.00
1602;DHT22;794;48.592;9.634;2022-10-26T09:34:47;18.60;1.00
1602;DHT22;794;48.592;9.634;2022-10-26T09:37:18;19.20;1.00
1602;DHT22;794;48.592;9.634;2022-10-26T09:39:54;19.10;1.00
1602;DHT22;794;48.592;9.634;2022-10-26T09:42:26;19.10;1.00
1602;DHT22;794;48.592;9.634;2022-10-26T09:45:00;19.40;1.00
1602;DHT22;794;48.592;9.634;2022-10-26T09:47:36;19.30;1.00
1602;DHT22;794;48.592;9.634;2022-10-26T09:50:23;19.80;1.00
1602;DHT22;794;48.592;9.634;2022-10-26T09:52:53;19.70;1.00
1602;DHT22;794;48.592;9.634;2022-10-26T09:55:23;20.00;1.00
1602;DHT22;794;48.592;9.634;2022-10-26T09:57:55;20.60;1.00
1602;DHT22;794;48.592;9.634;2022-10-26T10:00:26;20.90;1.00
1602;DHT22;794;48.592;9.634;2022-10-26T10:02:55;21.70;1.00
1602;DHT22;794;48.592;9.634;2022-10-26T10:05:27;21.90;1.00
1602;DHT22;794;48.592;9.634;2022-10-26T10:08:15;21.50;1.00
1602;DHT22;794;48.592;9.634;2022-10-26T10:11:01;20.70;1.00
1602;DHT22;794;48.592;9.634;2022-10-26T10:13:30;20.60;1.00
1602;DHT22;794;48.592;9.634;2022-10-26T10:16:06;20.30;1.00
1602;DHT22;794;48.592;9.634;2022-10-26T10:21:04;20.40;1.00
1602;DHT22;794;48.592;9.634;2022-10-26T10:23:33;20.60;1.00
1602;DHT22;794;48.592;9.634;2022-10-26T10:26:04;20.90;1.00
1602;DHT22;794;48.592;9.634;2022-10-26T10:28:32;21.10;1.00
1602;DHT22;794;48.592;9.634;2022-10-26T10:31:01;21.30;1.00
1602;DHT22;794;48.592;9.634;2022-10-26T10:33:35;21.10;1.00
1602;DHT22;794;48.592;9.634;2022-10-26T10:36:06;20.80;1.00
1602;DHT22;794;48.592;9.634;2022-10-26T10:38:39;20.70;1.00
1602;DHT22;794;48.592;9.634;2022-10-26T10:41:16;20.90;1.00
1602;DHT22;794;48.592;9.634;2022-10-26T10:43:46;21.30;1.00
1602;DHT22;794;48.592;9.634;2022-10-26T10:46:18;21.30;1.00
1602;DHT22;794;48.592;9.634;2022-10-26T10:48:47;21.60;1.00
1602;DHT22;794;48.592;9.634;2022-10-26T10:51:18;21.70;1.00
1602;DHT22;794;48.592;9.634;2022-10-26T10:53:52;21.30;1.00
1602;DHT22;794;48.592;9.634;2022-10-26T10:56:31;21.40;1.00
1602;DHT22;794;48.592;9.634;2022-10-26T10:59:11;21.00;1.00
1602;DHT22;794;48.592;9.634;2022-10-26T11:01:47;20.90;1.00
1602;DHT22;794;48.592;9.634;2022-10-26T11:04:34;20.80;1.00
1602;DHT22;794;48.592;9.634;2022-10-26T11:07:05;20.50;1.00
1602;DHT22;794;48.592;9.634;2022-10-26T11:09:54;20.50;1.00
1602;DHT22;794;48.592;9.634;2022-10-26T11:12:27;20.30;1.00
1602;DHT22;794;48.592;9.634;2022-10-26T11:15:00;20.30;1.00
1602;DHT22;794;48.592;9.634;2022-10-26T11:17:32;20.00;1.00
1602;DHT22;794;48.592;9.634;2022-10-26T11:20:02;19.90;1.00
1602;DHT22;794;48.592;9.634;2022-10-26T11:22:34;19.70;1.00
1602;DHT22;794;48.592;9.634;2022-10-26T11:27:56;20.40;1.00
1602;DHT22;794;48.592;9.634;2022-10-26T11:30:25;20.10;1.00
1602;DHT22;794;48.592;9.634;2022-10-26T11:32:59;19.80;1.00
1602;DHT22;794;48.592;9.634;2022-10-26T11:35:31;19.90;1.00
1602;DHT22;794;48.592;9.634;2022-10-26T11:38:01;20.30;1.00
1602;DHT22;794;48.592;9.634;2022-10-26T11:40:37;19.80;1.00
1602;DHT22;794;48.592;9.634;2022-10-26T11:43:13;20.60;1.00
1602;DHT22;794;48.592;9.634;2022-10-26T11:45:42;19.70;1.00
1602;DHT22;794;48.592;9.634;2022-10-26T11:48:14;19.70;1.00
1602;DHT22;794;48.592;9.634;2022-10-26T11:50:44;19.50;1.00
1602;DHT22;794;48.592;9.634;2022-10-26T11:53:17;21.60;1.00
1602;DHT22;794;48.592;9.634;2022-10-26T11:55:47;19.40;1.00
1602;DHT22;794;48.592;9.634;2022-10-26T11:58:19;19.20;1.00
1602;DHT22;794;48.592;9.634;2022-10-26T12:00:51;19.20;1.00
1602;DHT22;794;48.592;9.634;2022-10-26T12:03:24;19.20;1.00
1602;DHT22;794;48.592;9.634;2022-10-26T12:05:52;19.10;1.00
1602;DHT22;794;48.592;9.634;2022-10-26T12:08:23;19.30;1.00
1602;DHT22;794;48.592;9.634;2022-10-26T12:10:58;19.30;1.00
1602;DHT22;794;48.592;9.634;2022-10-26T12:13:38;19.30;1.00
1602;DHT22;794;48.592;9.634;2022-10-26T12:16:15;19.40;1.00
1602;DHT22;794;48.592;9.634;2022-10-26T12:18:49;19.30;1.00
1602;DHT22;794;48.592;9.634;2022-10-26T12:21:18;19.40;1.00
1602;DHT22;794;48.592;9.634;2022-10-26T12:23:56;17.30;1.00
1602;DHT22;794;48.592;9.634;2022-10-26T12:26:51;19.50;1.00
1602;DHT22;794;48.592;9.634;2022-10-26T12:29:43;19.80;1.00
1602;DHT22;794;48.592;9.634;2022-10-26T12:35:33;20.20;1.00
1602;DHT22;794;48.592;9.634;2022-10-26T12:38:01;20.40;1.00
1602;DHT22;794;48.592;9.634;2022-10-26T12:40:40;20.50;1.00
1602;DHT22;794;48.592;9.634;2022-10-26T12:43:33;20.50;1.00
1602;DHT22;794;48.592;9.634;2022-10-26T12:52:33;20.20;1.00
1602;DHT22;794;48.592;9.634;2022-10-26T12:58:11;20.40;1.00
1602;DHT22;794;48.592;9.634;2022-10-26T13:00:44;21.10;1.00
1602;DHT22;794;48.592;9.634;2022-10-26T13:03:22;20.50;1.00
1602;DHT22;794;48.592;9.634;2022-10-26T13:06:16;20.60;1.00
1602;DHT22;794;48.592;9.634;2022-10-26T13:08:52;20.80;1.00
1602;DHT22;794;48.592;9.634;2022-10-26T13:11:27;20.70;1.00
1602;DHT22;794;48.592;9.634;2022-10-26T13:13:57;20.60;1.00
1602;DHT22;794;48.592;9.634;2022-10-26T13:16:27;21.00;1.00
1602;DHT22;794;48.592;9.634;2022-10-26T13:18:55;20.70;1.00
1602;DHT22;794;48.592;9.634;2022-10-26T13:21:23;20.60;1.00
1602;DHT22;794;48.592;9.634;2022-10-26T13:23:59;20.60;1.00
1602;DHT22;794;48.592;9.634;2022-10-26T13:26:31;20.60;1.00
1602;DHT22;794;48.592;9.634;2022-10-26T13:29:00;20.60;1.00
1602;DHT22;794;48.592;9.634;2022-10-26T13:31:52;20.70;1.00
1602;DHT22;794;48.592;9.634;2022-10-26T13:34:22;20.80;1.00
1602;DHT22;794;48.592;9.634;2022-10-26T13:36:54;20.50;1.00
1602;DHT22;794;48.592;9.634;2022-10-26T13:39:30;20.70;1.00
1602;DHT22;794;48.592;9.634;2022-10-26T13:44:32;20.90;1.00
1602;DHT22;794;48.592;9.634;2022-10-26T13:47:03;21.00;1.00
1602;DHT22;794;48.592;9.634;2022-10-26T13:49:35;21.00;1.00
1602;DHT22;794;48.592;9.634;2022-10-26T13:52:06;21.20;1.00
1602;DHT22;794;48.592;9.634;2022-10-26T13:54:44;21.00;1.00
1602;DHT22;794;48.592;9.634;2022-10-26T13:57:18;20.90;1.00
1602;DHT22;794;48.592;9.634;2022-10-26T13:59:47;20.80;1.00
1602;DHT22;794;48.592;9.634;2022-10-26T14:02:21;20.90;1.00
1602;DHT22;794;48.592;9.634;2022-10-26T14:04:52;20.50;1.00
1602;DHT22;794;48.592;9.634;2022-10-26T14:07:22;20.40;1.00
1602;DHT22;794;48.592;9.634;2022-10-26T14:09:55;20.40;1.00
1602;DHT22;794;48.592;9.634;2022-10-26T14:12:25;19.90;1.00
1602;DHT22;794;48.592;9.634;2022-10-26T14:15:02;20.20;1.00
1602;DHT22;794;48.592;9.634;2022-10-26T14:17:31;19.70;1.00
1602;DHT22;794;48.592;9.634;2022-10-26T14:22:27;22.40;1.00
1602;DHT22;794;48.592;9.634;2022-10-26T14:24:58;19.80;1.00
1602;DHT22;794;48.592;9.634;2022-10-26T14:27:29;19.60;1.00
1602;DHT22;794;48.592;9.634;2022-10-26T14:29:57;19.60;1.00
1602;DHT22;794;48.592;9.634;2022-10-26T14:32:26;19.30;1.00
1602;DHT22;794;48.592;9.634;2022-10-26T14:34:56;19.60;1.00
1602;DHT22;794;48.592;9.634;2022-10-26T14:37:33;19.30;1.00
1602;DHT22;794;48.592;9.634;2022-10-26T14:40:04;19.20;1.00
1602;DHT22;794;48.592;9.634;2022-10-26T14:42:37;19.20;1.00
1602;DHT22;794;48.592;9.634;2022-10-26T14:45:22;17.70;1.00
1602;DHT22;794;48.592;9.634;2022-10-26T14:47:50;18.00;1.00
1602;DHT22;794;48.592;9.634;2022-10-26T14:50:18;19.50;1.00
1602;DHT22;794;48.592;9.634;2022-10-26T14:52:50;19.00;1.00
1602;DHT22;794;48.592;9.634;2022-10-26T14:55:20;18.90;1.00
1602;DHT22;794;48.592;9.634;2022-10-26T14:57:50;18.80;1.00
1602;DHT22;794;48.592;9.634;2022-10-26T15:00:19;18.80;1.00
1602;DHT22;794;48.592;9.634;2022-10-26T15:02:48;19.10;1.00
1602;DHT22;794;48.592;9.634;2022-10-26T15:05:21;18.60;1.00
1602;DHT22;794;48.592;9.634;2022-10-26T15:07:51;18.50;1.00
1602;DHT22;794;48.592;9.634;2022-10-26T15:10:47;18.20;1.00
1602;DHT22;794;48.592;9.634;2022-10-26T15:13:22;18.10;1.00
1602;DHT22;794;48.592;9.634;2022-10-26T15:15:52;17.90;1.00
1602;DHT22;794;48.592;9.634;2022-10-26T15:18:23;17.70;1.00
1602;DHT22;794;48.592;9.634;2022-10-26T15:20:52;17.50;1.00
1602;DHT22;794;48.592;9.634;2022-10-26T15:23:20;17.50;1.00
1602;DHT22;794;48.592;9.634;2022-10-26T15:25:55;15.00;1.00
1602;DHT22;794;48.592;9.634;2022-10-26T15:28:28;17.70;1.00
1602;DHT22;794;48.592;9.634;2022-10-26T15:31:03;17.40;1.00
1602;DHT22;794;48.592;9.634;2022-10-26T15:33:32;17.30;1.00
1602;DHT22;794;48.592;9.634;2022-10-26T15:36:11;17.80;1.00
1602;DHT22;794;48.592;9.634;2022-10-26T15:38:39;17.00;1.00
1602;DHT22;794;48.592;9.634;2022-10-26T15:41:13;17.50;1.00
1602;DHT22;794;48.592;9.634;2022-10-26T15:43:42;16.90;1.00
1602;DHT22;794;48.592;9.634;2022-10-26T15:46:09;16.50;1.00
1602;DHT22;794;48.592;9.634;2022-10-26T15:51:05;16.30;1.00
1602;DHT22;794;48.592;9.634;2022-10-26T15:58:30;16.00;1.00
1602;DHT22;794;48.592;9.634;2022-10-26T16:03:25;15.60;1.00
1602;DHT22;794;48.592;9.634;2022-10-26T16:05:56;15.70;1.00
1602;DHT22;794;48.592;9.634;2022-10-26T16:08:25;15.40;1.00
1602;DHT22;794;48.592;9.634;2022-10-26T16:15:52;15.10;1.00
1602;DHT22;794;48.592;9.634;2022-10-26T16:18:19;15.90;1.00
1602;DHT22;794;48.592;9.634;2022-10-26T16:20:46;15.10;1.00
1602;DHT22;794;48.592;9.634;2022-10-26T16:23:15;14.90;1.00
1602;DHT22;794;48.592;9.634;2022-10-26T16:25:45;14.80;1.00
1602;DHT22;794;48.592;9.634;2022-10-26T16:28:14;14.60;1.00
1602;DHT22;794;48.592;9.634;2022-10-26T16:30:41;14.50;1.00
1602;DHT22;794;48.592;9.634;2022-10-26T16:33:10;14.40;1.00
1602;DHT22;794;48.592;9.634;2022-10-26T16:50:22;13.70;1.00
1602;DHT22;794;48.592;9.634;2022-10-26T17:07:39;13.30;1.00
1602;DHT22;794;48.592;9.634;2022-10-26T17:12:34;12.40;1.00
1602;DHT22;794;48.592;9.634;2022-10-26T17:24:53;13.30;1.00
1602;DHT22;794;48.592;9.634;2022-10-26T17:27:20;12.40;1.00
1602;DHT22;794;48.592;9.634;2022-10-26T17:29:47;13.00;1.00
1602;DHT22;794;48.592;9.634;2022-10-26T17:32:15;13.00;1.00
1602;DHT22;794;48.592;9.634;2022-10-26T17:34:43;12.90;1.00
1602;DHT22;794;48.592;9.634;2022-10-26T17:37:13;12.80;1.00
1602;DHT22;794;48.592;9.634;2022-10-26T17:42:08;12.40;1.00
1602;DHT22;794;48.592;9.634;2022-10-26T17:51:58;12.80;1.00
1602;DHT22;794;48.592;9.634;2022-10-26T17:54:25;12.50;1.00
1602;DHT22;794;48.592;9.634;2022-10-26T17:56:51;10.10;1.00
1602;DHT22;794;48.592;9.634;2022-10-26T17:59:20;12.30;1.00
1602;DHT22;794;48.592;9.634;2022-10-26T18:09:08;12.40;1.00
1602;DHT22;794;48.592;9.634;2022-10-26T18:16:31;12.20;1.00
1602;DHT22;794;48.592;9.634;2022-10-26T18:19:00;12.30;1.00
1602;DHT22;794;48.592;9.634;2022-10-26T18:21:30;11.90;1.00
1602;DHT22;794;48.592;9.634;2022-10-26T18:23:58;12.10;1.00
1602;DHT22;794;48.592;9.634;2022-10-26T18:26:26;12.10;1.00
1602;DHT22;794;48.592;9.634;2022-10-26T18:31:22;11.90;1.00
1602;DHT22;794;48.592;9.634;2022-10-26T18:33:54;11.90;1.00
1602;DHT22;794;48.592;9.634;2022-10-26T18:41:18;11.70;1.00
1602;DHT22;794;48.592;9.634;2022-10-26T18:43:47;11.80;1.00
1602;DHT22;794;48.592;9.634;2022-10-26T18:46:17;11.70;1.00
1602;DHT22;794;48.592;9.634;2022-10-26T18:51:14;11.70;1.00
1602;DHT22;794;48.592;9.634;2022-10-26T18:53:42;11.50;1.00
1602;DHT22;794;48.592;9.634;2022-10-26T18:56:12;11.50;1.00
1602;DHT22;794;48.592;9.634;2022-10-26T18:58:40;11.70;1.00
1602;DHT22;794;48.592;9.634;2022-10-26T19:01:09;11.70;1.00
1602;DHT22;794;48.592;9.634;2022-10-26T19:03:37;11.50;1.00
1602;DHT22;794;48.592;9.634;2022-10-26T19:06:08;11.40;1.00
1602;DHT22;794;48.592;9.634;2022-10-26T19:08:37;11.50;1.00
1602;DHT22;794;48.592;9.634;2022-10-26T19:11:06;11.40;1.00
1602;DHT22;794;48.592;9.634;2022-10-26T19:13:33;11.30;1.00
1602;DHT22;794;48.592;9.634;2022-10-26T19:16:01;11.30;1.00
1602;DHT22;794;48.592;9.634;2022-10-26T19:18:28;11.60;1.00
1602;DHT22;794;48.592;9.634;2022-10-26T19:20:59;11.20;1.00
1602;DHT22;794;48.592;9.634;2022-10-26T19:23:31;11.10;1.00